sensor_id;sensor_type;location;lat;lon;timestamp;P1;durP1;ratioP1;P2;durP2;ratioP2
46363;SDS011;32071;49.036;9.344;2024-03-06T00:01:29;6.13;;;4.60;;
46363;SDS011;32071;49.036;9.344;2024-03-06T00:03:55;5.80;;;4.43;;
46363;SDS011;32071;49.036;9.344;2024-03-06T00:06:20;7.50;;;5.23;;
46363;SDS011;32071;49.036;9.344;2024-03-06T00:08:46;6.93;;;5.20;;
46363;SDS011;32071;49.036;9.344;2024-03-06T00:11:11;6.27;;;4.50;;
46363;SDS011;32071;49.036;9.344;2024-03-06T00:13:37;7.20;;;4.67;;
46363;SDS011;32071;49.036;9.344;2024-03-06T00:16:04;8.83;;;4.90;;
46363;SDS011;32071;49.036;9.344;2024-03-06T00:18:29;7.70;;;5.53;;
46363;SDS011;32071;49.036;9.344;2024-03-06T00:20:55;8.13;;;5.23;;
46363;SDS011;32071;49.036;9.344;2024-03-06T00:23:21;8.00;;;5.10;;
46363;SDS011;32071;49.036;9.344;2024-03-06T00:25:46;5.70;;;4.40;;
46363;SDS011;32071;49.036;9.344;2024-03-06T00:28:12;6.40;;;4.37;;
46363;SDS011;32071;49.036;9.344;2024-03-06T00:30:37;6.20;;;4.67;;
46363;SDS011;32071;49.036;9.344;2024-03-06T00:33:03;8.40;;;5.00;;
46363;SDS011;32071;49.036;9.344;2024-03-06T00:35:28;5.97;;;5.00;;
46363;SDS011;32071;49.036;9.344;2024-03-06T00:37:54;6.93;;;4.37;;
46363;SDS011;32071;49.036;9.344;2024-03-06T00:40:20;5.93;;;4.40;;
46363;SDS011;32071;49.036;9.344;2024-03-06T00:42:45;9.90;;;4.50;;
46363;SDS011;32071;49.036;9.344;2024-03-06T00:45:11;5.73;;;4.27;;
46363;SDS011;32071;49.036;9.344;2024-03-06T00:47:37;7.00;;;4.67;;
46363;SDS011;32071;49.036;9.344;2024-03-06T00:50:02;5.87;;;4.00;;
46363;SDS011;32071;49.036;9.344;2024-03-06T00:52:32;6.60;;;4.37;;
46363;SDS011;32071;49.036;9.344;2024-03-06T00:54:58;8.30;;;4.37;;
46363;SDS011;32071;49.036;9.344;2024-03-06T00:57:24;6.10;;;4.30;;
46363;SDS011;32071;49.036;9.344;2024-03-06T00:59:49;7.37;;;4.60;;
46363;SDS011;32071;49.036;9.344;2024-03-06T01:02:15;5.93;;;4.47;;
46363;SDS011;32071;49.036;9.344;2024-03-06T01:04:40;7.70;;;4.33;;
46363;SDS011;32071;49.036;9.344;2024-03-06T01:07:06;7.70;;;3.53;;
46363;SDS011;32071;49.036;9.344;2024-03-06T01:09:31;7.03;;;4.23;;
46363;SDS011;32071;49.036;9.344;2024-03-06T01:11:57;5.67;;;3.93;;
46363;SDS011;32071;49.036;9.344;2024-03-06T01:14:22;6.53;;;4.37;;
46363;SDS011;32071;49.036;9.344;2024-03-06T01:16:48;5.13;;;3.70;;
46363;SDS011;32071;49.036;9.344;2024-03-06T01:19:14;10.53;;;3.90;;
46363;SDS011;32071;49.036;9.344;2024-03-06T01:21:39;8.93;;;3.90;;
46363;SDS011;32071;49.036;9.344;2024-03-06T01:24:05;5.40;;;3.93;;
46363;SDS011;32071;49.036;9.344;2024-03-06T01:26:30;6.50;;;4.20;;
46363;SDS011;32071;49.036;9.344;2024-03-06T01:28:56;8.10;;;4.50;;
46363;SDS011;32071;49.036;9.344;2024-03-06T01:31:21;6.97;;;4.10;;
46363;SDS011;32071;49.036;9.344;2024-03-06T01:33:47;7.33;;;3.97;;
46363;SDS011;32071;49.036;9.344;2024-03-06T01:36:12;5.30;;;4.20;;
46363;SDS011;32071;49.036;9.344;2024-03-06T01:38:38;6.20;;;4.23;;
46363;SDS011;32071;49.036;9.344;2024-03-06T01:41:03;4.13;;;3.67;;
46363;SDS011;32071;49.036;9.344;2024-03-06T01:43:36;5.33;;;3.70;;
46363;SDS011;32071;49.036;9.344;2024-03-06T01:46:03;5.90;;;4.20;;
46363;SDS011;32071;49.036;9.344;2024-03-06T01:48:29;11.53;;;4.40;;
46363;SDS011;32071;49.036;9.344;2024-03-06T01:50:56;4.73;;;3.57;;
46363;SDS011;32071;49.036;9.344;2024-03-06T01:53:24;5.93;;;4.40;;
46363;SDS011;32071;49.036;9.344;2024-03-06T01:55:51;5.63;;;4.20;;
46363;SDS011;32071;49.036;9.344;2024-03-06T01:58:17;6.23;;;4.00;;
46363;SDS011;32071;49.036;9.344;2024-03-06T02:00:43;10.07;;;4.47;;
46363;SDS011;32071;49.036;9.344;2024-03-06T02:03:09;7.60;;;4.60;;
46363;SDS011;32071;49.036;9.344;2024-03-06T02:05:36;5.07;;;3.90;;
46363;SDS011;32071;49.036;9.344;2024-03-06T02:08:01;7.80;;;4.43;;
46363;SDS011;32071;49.036;9.344;2024-03-06T02:10:28;4.67;;;4.03;;
46363;SDS011;32071;49.036;9.344;2024-03-06T02:12:54;5.30;;;3.97;;
46363;SDS011;32071;49.036;9.344;2024-03-06T02:15:20;4.53;;;3.53;;
46363;SDS011;32071;49.036;9.344;2024-03-06T02:17:45;5.93;;;4.20;;
46363;SDS011;32071;49.036;9.344;2024-03-06T02:20:11;6.83;;;3.97;;
46363;SDS011;32071;49.036;9.344;2024-03-06T02:22:39;6.67;;;4.17;;
46363;SDS011;32071;49.036;9.344;2024-03-06T02:25:05;5.53;;;4.30;;
46363;SDS011;32071;49.036;9.344;2024-03-06T02:27:31;9.03;;;4.30;;
46363;SDS011;32071;49.036;9.344;2024-03-06T02:29:57;6.10;;;4.43;;
46363;SDS011;32071;49.036;9.344;2024-03-06T02:32:23;8.80;;;4.03;;
46363;SDS011;32071;49.036;9.344;2024-03-06T02:34:50;10.63;;;5.13;;
46363;SDS011;32071;49.036;9.344;2024-03-06T02:37:15;7.27;;;4.40;;
46363;SDS011;32071;49.036;9.344;2024-03-06T02:39:41;6.03;;;4.10;;
46363;SDS011;32071;49.036;9.344;2024-03-06T02:42:07;6.80;;;4.57;;
46363;SDS011;32071;49.036;9.344;2024-03-06T02:44:32;5.30;;;3.80;;
46363;SDS011;32071;49.036;9.344;2024-03-06T02:46:58;5.93;;;4.20;;
46363;SDS011;32071;49.036;9.344;2024-03-06T02:49:24;5.80;;;4.43;;
46363;SDS011;32071;49.036;9.344;2024-03-06T02:51:50;11.20;;;5.20;;
46363;SDS011;32071;49.036;9.344;2024-03-06T02:54:16;7.83;;;5.07;;
46363;SDS011;32071;49.036;9.344;2024-03-06T02:56:41;8.73;;;5.00;;
46363;SDS011;32071;49.036;9.344;2024-03-06T02:59:07;10.47;;;4.90;;
46363;SDS011;32071;49.036;9.344;2024-03-06T03:01:33;6.67;;;5.00;;
46363;SDS011;32071;49.036;9.344;2024-03-06T03:03:59;6.83;;;4.77;;
46363;SDS011;32071;49.036;9.344;2024-03-06T03:06:25;6.90;;;4.70;;
46363;SDS011;32071;49.036;9.344;2024-03-06T03:08:50;9.00;;;4.50;;
46363;SDS011;32071;49.036;9.344;2024-03-06T03:11:16;6.50;;;5.00;;
46363;SDS011;32071;49.036;9.344;2024-03-06T03:13:42;6.33;;;4.73;;
46363;SDS011;32071;49.036;9.344;2024-03-06T03:16:14;7.07;;;4.27;;
46363;SDS011;32071;49.036;9.344;2024-03-06T03:18:43;5.93;;;4.40;;
46363;SDS011;32071;49.036;9.344;2024-03-06T03:21:10;7.00;;;4.87;;
46363;SDS011;32071;49.036;9.344;2024-03-06T03:23:36;6.23;;;4.17;;
46363;SDS011;32071;49.036;9.344;2024-03-06T03:26:02;5.83;;;3.90;;
46363;SDS011;32071;49.036;9.344;2024-03-06T03:28:29;8.30;;;4.23;;
46363;SDS011;32071;49.036;9.344;2024-03-06T03:30:54;7.03;;;4.50;;
46363;SDS011;32071;49.036;9.344;2024-03-06T03:33:21;5.57;;;4.00;;
46363;SDS011;32071;49.036;9.344;2024-03-06T03:35:47;6.33;;;4.87;;
46363;SDS011;32071;49.036;9.344;2024-03-06T03:38:13;8.50;;;4.90;;
46363;SDS011;32071;49.036;9.344;2024-03-06T03:40:38;7.47;;;4.90;;
46363;SDS011;32071;49.036;9.344;2024-03-06T03:43:04;7.80;;;4.70;;
46363;SDS011;32071;49.036;9.344;2024-03-06T03:45:32;6.50;;;4.10;;
46363;SDS011;32071;49.036;9.344;2024-03-06T03:47:58;7.43;;;4.60;;
46363;SDS011;32071;49.036;9.344;2024-03-06T03:50:25;7.67;;;5.13;;
46363;SDS011;32071;49.036;9.344;2024-03-06T03:52:51;8.20;;;5.10;;
46363;SDS011;32071;49.036;9.344;2024-03-06T03:55:16;9.23;;;5.47;;
46363;SDS011;32071;49.036;9.344;2024-03-06T03:57:42;7.50;;;5.57;;
46363;SDS011;32071;49.036;9.344;2024-03-06T04:00:07;8.43;;;5.00;;
46363;SDS011;32071;49.036;9.344;2024-03-06T04:02:36;14.40;;;9.00;;
46363;SDS011;32071;49.036;9.344;2024-03-06T04:05:05;13.60;;;7.77;;
46363;SDS011;32071;49.036;9.344;2024-03-06T04:07:30;9.83;;;5.40;;
46363;SDS011;32071;49.036;9.344;2024-03-06T04:09:56;9.30;;;6.00;;
46363;SDS011;32071;49.036;9.344;2024-03-06T04:12:23;12.90;;;6.37;;
46363;SDS011;32071;49.036;9.344;2024-03-06T04:14:49;7.73;;;5.63;;
46363;SDS011;32071;49.036;9.344;2024-03-06T04:17:14;10.30;;;5.40;;
46363;SDS011;32071;49.036;9.344;2024-03-06T04:19:40;12.60;;;5.90;;
46363;SDS011;32071;49.036;9.344;2024-03-06T04:22:05;11.90;;;5.40;;
46363;SDS011;32071;49.036;9.344;2024-03-06T04:24:31;10.40;;;6.73;;
46363;SDS011;32071;49.036;9.344;2024-03-06T04:26:56;9.67;;;6.07;;
46363;SDS011;32071;49.036;9.344;2024-03-06T04:29:22;9.83;;;6.00;;
46363;SDS011;32071;49.036;9.344;2024-03-06T04:31:47;9.73;;;5.80;;
46363;SDS011;32071;49.036;9.344;2024-03-06T04:34:13;10.00;;;6.83;;
46363;SDS011;32071;49.036;9.344;2024-03-06T04:36:38;9.40;;;5.50;;
46363;SDS011;32071;49.036;9.344;2024-03-06T04:39:04;7.93;;;5.47;;
46363;SDS011;32071;49.036;9.344;2024-03-06T04:41:33;8.67;;;5.83;;
46363;SDS011;32071;49.036;9.344;2024-03-06T04:43:58;9.37;;;5.40;;
46363;SDS011;32071;49.036;9.344;2024-03-06T04:46:25;6.33;;;5.43;;
46363;SDS011;32071;49.036;9.344;2024-03-06T04:48:51;12.17;;;5.97;;
46363;SDS011;32071;49.036;9.344;2024-03-06T04:51:17;6.97;;;5.30;;
46363;SDS011;32071;49.036;9.344;2024-03-06T04:53:44;9.93;;;5.40;;
46363;SDS011;32071;49.036;9.344;2024-03-06T04:56:10;8.30;;;5.50;;
46363;SDS011;32071;49.036;9.344;2024-03-06T04:58:36;8.23;;;5.80;;
46363;SDS011;32071;49.036;9.344;2024-03-06T05:01:01;9.63;;;5.50;;
46363;SDS011;32071;49.036;9.344;2024-03-06T05:03:28;6.70;;;4.80;;
46363;SDS011;32071;49.036;9.344;2024-03-06T05:05:54;6.47;;;4.40;;
46363;SDS011;32071;49.036;9.344;2024-03-06T05:08:19;9.30;;;5.93;;
46363;SDS011;32071;49.036;9.344;2024-03-06T05:10:45;9.03;;;5.87;;
46363;SDS011;32071;49.036;9.344;2024-03-06T05:13:11;11.40;;;6.97;;
46363;SDS011;32071;49.036;9.344;2024-03-06T05:15:37;9.20;;;6.77;;
46363;SDS011;32071;49.036;9.344;2024-03-06T05:18:04;10.10;;;5.77;;
46363;SDS011;32071;49.036;9.344;2024-03-06T05:20:30;14.50;;;7.80;;
46363;SDS011;32071;49.036;9.344;2024-03-06T05:22:58;12.50;;;7.40;;
46363;SDS011;32071;49.036;9.344;2024-03-06T05:25:24;13.93;;;7.07;;
46363;SDS011;32071;49.036;9.344;2024-03-06T05:27:49;12.83;;;8.10;;
46363;SDS011;32071;49.036;9.344;2024-03-06T05:30:15;16.20;;;9.07;;
46363;SDS011;32071;49.036;9.344;2024-03-06T05:32:41;11.33;;;8.13;;
46363;SDS011;32071;49.036;9.344;2024-03-06T05:35:07;14.40;;;8.27;;
46363;SDS011;32071;49.036;9.344;2024-03-06T05:37:35;13.73;;;10.10;;
46363;SDS011;32071;49.036;9.344;2024-03-06T05:40:00;16.50;;;9.17;;
46363;SDS011;32071;49.036;9.344;2024-03-06T05:42:29;12.00;;;9.00;;
46363;SDS011;32071;49.036;9.344;2024-03-06T05:44:56;12.00;;;9.00;;
46363;SDS011;32071;49.036;9.344;2024-03-06T05:47:25;14.17;;;9.00;;
46363;SDS011;32071;49.036;9.344;2024-03-06T05:49:51;13.00;;;9.13;;
46363;SDS011;32071;49.036;9.344;2024-03-06T05:52:17;15.40;;;8.47;;
46363;SDS011;32071;49.036;9.344;2024-03-06T05:54:43;14.17;;;8.60;;
46363;SDS011;32071;49.036;9.344;2024-03-06T05:57:08;13.53;;;7.80;;
46363;SDS011;32071;49.036;9.344;2024-03-06T05:59:34;14.03;;;8.80;;
46363;SDS011;32071;49.036;9.344;2024-03-06T06:02:00;13.43;;;8.53;;
46363;SDS011;32071;49.036;9.344;2024-03-06T06:04:25;15.77;;;8.43;;
46363;SDS011;32071;49.036;9.344;2024-03-06T06:06:51;16.90;;;10.20;;
46363;SDS011;32071;49.036;9.344;2024-03-06T06:09:17;15.40;;;8.40;;
46363;SDS011;32071;49.036;9.344;2024-03-06T06:11:43;15.83;;;9.83;;
46363;SDS011;32071;49.036;9.344;2024-03-06T06:14:09;20.27;;;11.43;;
46363;SDS011;32071;49.036;9.344;2024-03-06T06:16:36;16.93;;;10.77;;
46363;SDS011;32071;49.036;9.344;2024-03-06T06:19:02;17.17;;;10.70;;
46363;SDS011;32071;49.036;9.344;2024-03-06T06:21:28;18.70;;;11.60;;
46363;SDS011;32071;49.036;9.344;2024-03-06T06:23:54;19.43;;;10.70;;
46363;SDS011;32071;49.036;9.344;2024-03-06T06:26:21;15.73;;;10.73;;
46363;SDS011;32071;49.036;9.344;2024-03-06T06:28:46;23.13;;;13.23;;
46363;SDS011;32071;49.036;9.344;2024-03-06T06:31:12;23.23;;;15.10;;
46363;SDS011;32071;49.036;9.344;2024-03-06T06:33:37;32.07;;;17.73;;
46363;SDS011;32071;49.036;9.344;2024-03-06T06:36:03;32.33;;;17.07;;
46363;SDS011;32071;49.036;9.344;2024-03-06T06:38:29;17.27;;;10.93;;
46363;SDS011;32071;49.036;9.344;2024-03-06T06:40:55;18.73;;;10.93;;
46363;SDS011;32071;49.036;9.344;2024-03-06T06:43:21;19.07;;;11.20;;
46363;SDS011;32071;49.036;9.344;2024-03-06T06:45:47;16.33;;;10.20;;
46363;SDS011;32071;49.036;9.344;2024-03-06T06:48:12;17.53;;;11.43;;
46363;SDS011;32071;49.036;9.344;2024-03-06T06:50:38;18.37;;;11.47;;
46363;SDS011;32071;49.036;9.344;2024-03-06T06:53:04;17.90;;;11.20;;
46363;SDS011;32071;49.036;9.344;2024-03-06T06:55:29;19.73;;;13.43;;
46363;SDS011;32071;49.036;9.344;2024-03-06T06:57:55;18.63;;;12.40;;
46363;SDS011;32071;49.036;9.344;2024-03-06T07:00:21;21.73;;;13.33;;
46363;SDS011;32071;49.036;9.344;2024-03-06T07:02:47;19.57;;;11.50;;
46363;SDS011;32071;49.036;9.344;2024-03-06T07:05:13;20.17;;;12.33;;
46363;SDS011;32071;49.036;9.344;2024-03-06T07:07:39;21.83;;;12.30;;
46363;SDS011;32071;49.036;9.344;2024-03-06T07:10:05;17.50;;;12.30;;
46363;SDS011;32071;49.036;9.344;2024-03-06T07:12:32;17.57;;;12.00;;
46363;SDS011;32071;49.036;9.344;2024-03-06T07:14:58;20.97;;;14.97;;
46363;SDS011;32071;49.036;9.344;2024-03-06T07:17:27;22.50;;;13.93;;
46363;SDS011;32071;49.036;9.344;2024-03-06T07:19:53;29.70;;;19.90;;
46363;SDS011;32071;49.036;9.344;2024-03-06T07:22:19;29.20;;;19.33;;
46363;SDS011;32071;49.036;9.344;2024-03-06T07:24:44;29.60;;;20.50;;
46363;SDS011;32071;49.036;9.344;2024-03-06T07:27:10;25.87;;;19.03;;
46363;SDS011;32071;49.036;9.344;2024-03-06T07:29:36;29.40;;;18.30;;
46363;SDS011;32071;49.036;9.344;2024-03-06T07:32:02;25.43;;;17.90;;
46363;SDS011;32071;49.036;9.344;2024-03-06T07:34:30;26.07;;;17.30;;
46363;SDS011;32071;49.036;9.344;2024-03-06T07:36:55;30.60;;;18.10;;
46363;SDS011;32071;49.036;9.344;2024-03-06T07:39:22;24.03;;;17.00;;
46363;SDS011;32071;49.036;9.344;2024-03-06T07:41:49;25.37;;;16.77;;
46363;SDS011;32071;49.036;9.344;2024-03-06T07:44:14;26.20;;;18.50;;
46363;SDS011;32071;49.036;9.344;2024-03-06T07:46:40;23.20;;;16.90;;
46363;SDS011;32071;49.036;9.344;2024-03-06T07:49:05;25.70;;;16.13;;
46363;SDS011;32071;49.036;9.344;2024-03-06T07:51:31;21.93;;;15.70;;
46363;SDS011;32071;49.036;9.344;2024-03-06T07:53:57;27.87;;;17.20;;
46363;SDS011;32071;49.036;9.344;2024-03-06T07:56:26;22.80;;;16.57;;
46363;SDS011;32071;49.036;9.344;2024-03-06T07:58:52;25.37;;;16.77;;
46363;SDS011;32071;49.036;9.344;2024-03-06T08:01:18;26.40;;;17.80;;
46363;SDS011;32071;49.036;9.344;2024-03-06T08:03:45;24.17;;;16.20;;
46363;SDS011;32071;49.036;9.344;2024-03-06T08:06:11;23.13;;;16.13;;
46363;SDS011;32071;49.036;9.344;2024-03-06T08:08:42;24.70;;;17.53;;
46363;SDS011;32071;49.036;9.344;2024-03-06T08:11:12;21.00;;;16.70;;
46363;SDS011;32071;49.036;9.344;2024-03-06T08:13:40;23.80;;;17.00;;
46363;SDS011;32071;49.036;9.344;2024-03-06T08:16:06;22.03;;;16.13;;
46363;SDS011;32071;49.036;9.344;2024-03-06T08:18:33;23.73;;;16.50;;
46363;SDS011;32071;49.036;9.344;2024-03-06T08:21:00;23.60;;;16.80;;
46363;SDS011;32071;49.036;9.344;2024-03-06T08:23:26;21.80;;;15.20;;
46363;SDS011;32071;49.036;9.344;2024-03-06T08:25:51;23.90;;;16.90;;
46363;SDS011;32071;49.036;9.344;2024-03-06T08:28:20;23.67;;;16.00;;
46363;SDS011;32071;49.036;9.344;2024-03-06T08:30:46;25.30;;;17.40;;
46363;SDS011;32071;49.036;9.344;2024-03-06T08:33:11;23.43;;;15.43;;
46363;SDS011;32071;49.036;9.344;2024-03-06T08:35:37;25.47;;;16.20;;
46363;SDS011;32071;49.036;9.344;2024-03-06T08:38:04;24.40;;;17.23;;
46363;SDS011;32071;49.036;9.344;2024-03-06T08:40:31;25.63;;;17.63;;
46363;SDS011;32071;49.036;9.344;2024-03-06T08:42:57;25.87;;;17.10;;
46363;SDS011;32071;49.036;9.344;2024-03-06T08:45:22;24.20;;;17.03;;
46363;SDS011;32071;49.036;9.344;2024-03-06T08:47:51;24.27;;;16.30;;
46363;SDS011;32071;49.036;9.344;2024-03-06T08:50:19;25.70;;;17.10;;
46363;SDS011;32071;49.036;9.344;2024-03-06T08:52:45;22.63;;;17.67;;
46363;SDS011;32071;49.036;9.344;2024-03-06T08:55:11;24.77;;;17.40;;
46363;SDS011;32071;49.036;9.344;2024-03-06T08:57:37;24.13;;;16.20;;
46363;SDS011;32071;49.036;9.344;2024-03-06T09:00:04;25.53;;;17.77;;
46363;SDS011;32071;49.036;9.344;2024-03-06T09:02:35;24.87;;;17.50;;
46363;SDS011;32071;49.036;9.344;2024-03-06T09:05:07;26.97;;;18.00;;
46363;SDS011;32071;49.036;9.344;2024-03-06T09:07:35;25.57;;;17.60;;
46363;SDS011;32071;49.036;9.344;2024-03-06T09:10:05;25.60;;;17.43;;
46363;SDS011;32071;49.036;9.344;2024-03-06T09:12:32;26.90;;;17.00;;
46363;SDS011;32071;49.036;9.344;2024-03-06T09:14:57;25.63;;;18.23;;
46363;SDS011;32071;49.036;9.344;2024-03-06T09:17:25;24.40;;;17.10;;
46363;SDS011;32071;49.036;9.344;2024-03-06T09:19:51;28.10;;;18.00;;
46363;SDS011;32071;49.036;9.344;2024-03-06T09:22:17;30.67;;;19.07;;
46363;SDS011;32071;49.036;9.344;2024-03-06T09:24:42;26.97;;;17.23;;
46363;SDS011;32071;49.036;9.344;2024-03-06T09:27:08;23.30;;;17.50;;
46363;SDS011;32071;49.036;9.344;2024-03-06T09:29:34;27.67;;;19.70;;
46363;SDS011;32071;49.036;9.344;2024-03-06T09:31:59;24.73;;;17.90;;
46363;SDS011;32071;49.036;9.344;2024-03-06T09:34:25;26.97;;;18.30;;
46363;SDS011;32071;49.036;9.344;2024-03-06T09:36:51;30.03;;;19.20;;
46363;SDS011;32071;49.036;9.344;2024-03-06T09:39:17;32.50;;;18.20;;
46363;SDS011;32071;49.036;9.344;2024-03-06T09:41:50;25.53;;;17.80;;
46363;SDS011;32071;49.036;9.344;2024-03-06T09:44:17;31.43;;;18.33;;
46363;SDS011;32071;49.036;9.344;2024-03-06T09:46:44;26.90;;;18.50;;
46363;SDS011;32071;49.036;9.344;2024-03-06T09:49:11;26.60;;;18.80;;
46363;SDS011;32071;49.036;9.344;2024-03-06T09:51:39;31.00;;;18.77;;
46363;SDS011;32071;49.036;9.344;2024-03-06T09:54:15;27.67;;;18.90;;
46363;SDS011;32071;49.036;9.344;2024-03-06T09:56:41;28.30;;;18.37;;
46363;SDS011;32071;49.036;9.344;2024-03-06T09:59:08;29.33;;;19.50;;
46363;SDS011;32071;49.036;9.344;2024-03-06T10:01:35;27.27;;;18.27;;
46363;SDS011;32071;49.036;9.344;2024-03-06T10:06:49;34.13;;;19.73;;
46363;SDS011;32071;49.036;9.344;2024-03-06T10:09:19;30.10;;;20.33;;
46363;SDS011;32071;49.036;9.344;2024-03-06T10:11:46;26.20;;;19.00;;
46363;SDS011;32071;49.036;9.344;2024-03-06T10:14:13;27.80;;;19.20;;
46363;SDS011;32071;49.036;9.344;2024-03-06T10:19:24;28.90;;;19.90;;
46363;SDS011;32071;49.036;9.344;2024-03-06T10:21:53;30.80;;;20.20;;
46363;SDS011;32071;49.036;9.344;2024-03-06T10:24:21;32.47;;;19.67;;
46363;SDS011;32071;49.036;9.344;2024-03-06T10:26:51;29.47;;;19.17;;
46363;SDS011;32071;49.036;9.344;2024-03-06T10:29:19;31.80;;;20.03;;
46363;SDS011;32071;49.036;9.344;2024-03-06T10:31:56;31.60;;;19.70;;
46363;SDS011;32071;49.036;9.344;2024-03-06T10:34:26;25.07;;;18.30;;
46363;SDS011;32071;49.036;9.344;2024-03-06T10:36:56;31.27;;;19.50;;
46363;SDS011;32071;49.036;9.344;2024-03-06T10:39:23;26.57;;;18.07;;
46363;SDS011;32071;49.036;9.344;2024-03-06T10:41:52;24.83;;;17.03;;
46363;SDS011;32071;49.036;9.344;2024-03-06T10:44:22;27.40;;;18.37;;
46363;SDS011;32071;49.036;9.344;2024-03-06T10:47:11;33.97;;;19.17;;
46363;SDS011;32071;49.036;9.344;2024-03-06T10:49:36;26.77;;;18.70;;
46363;SDS011;32071;49.036;9.344;2024-03-06T10:52:04;26.53;;;18.63;;
46363;SDS011;32071;49.036;9.344;2024-03-06T10:54:33;33.00;;;19.97;;
46363;SDS011;32071;49.036;9.344;2024-03-06T10:57:00;30.20;;;19.20;;
46363;SDS011;32071;49.036;9.344;2024-03-06T10:59:26;29.17;;;19.00;;
46363;SDS011;32071;49.036;9.344;2024-03-06T11:01:53;31.23;;;19.87;;
46363;SDS011;32071;49.036;9.344;2024-03-06T11:04:26;29.40;;;19.00;;
46363;SDS011;32071;49.036;9.344;2024-03-06T11:06:54;28.70;;;17.83;;
46363;SDS011;32071;49.036;9.344;2024-03-06T11:09:20;28.70;;;18.73;;
46363;SDS011;32071;49.036;9.344;2024-03-06T11:11:49;26.90;;;17.80;;
46363;SDS011;32071;49.036;9.344;2024-03-06T11:14:16;28.30;;;18.97;;
46363;SDS011;32071;49.036;9.344;2024-03-06T11:19:27;29.87;;;17.90;;
46363;SDS011;32071;49.036;9.344;2024-03-06T11:21:54;26.20;;;16.30;;
46363;SDS011;32071;49.036;9.344;2024-03-06T11:24:20;32.67;;;18.30;;
46363;SDS011;32071;49.036;9.344;2024-03-06T11:26:48;27.20;;;18.00;;
46363;SDS011;32071;49.036;9.344;2024-03-06T11:29:18;30.80;;;19.27;;
46363;SDS011;32071;49.036;9.344;2024-03-06T11:31:58;33.33;;;18.90;;
46363;SDS011;32071;49.036;9.344;2024-03-06T11:34:29;30.43;;;19.50;;
46363;SDS011;32071;49.036;9.344;2024-03-06T11:36:58;32.70;;;19.53;;
46363;SDS011;32071;49.036;9.344;2024-03-06T11:39:24;27.33;;;18.43;;
46363;SDS011;32071;49.036;9.344;2024-03-06T11:41:52;30.80;;;19.37;;
46363;SDS011;32071;49.036;9.344;2024-03-06T11:44:21;31.53;;;19.33;;
46363;SDS011;32071;49.036;9.344;2024-03-06T11:46:49;35.77;;;20.20;;
46363;SDS011;32071;49.036;9.344;2024-03-06T11:49:22;36.13;;;20.17;;
46363;SDS011;32071;49.036;9.344;2024-03-06T11:52:03;28.90;;;18.70;;
46363;SDS011;32071;49.036;9.344;2024-03-06T11:54:30;32.67;;;19.60;;
46363;SDS011;32071;49.036;9.344;2024-03-06T11:56:57;35.10;;;20.07;;
46363;SDS011;32071;49.036;9.344;2024-03-06T11:59:28;33.47;;;20.83;;
46363;SDS011;32071;49.036;9.344;2024-03-06T12:01:55;33.07;;;20.57;;
46363;SDS011;32071;49.036;9.344;2024-03-06T12:04:21;33.07;;;20.40;;
46363;SDS011;32071;49.036;9.344;2024-03-06T12:06:48;33.53;;;19.73;;
46363;SDS011;32071;49.036;9.344;2024-03-06T12:09:14;28.97;;;17.73;;
46363;SDS011;32071;49.036;9.344;2024-03-06T12:11:40;31.87;;;19.50;;
46363;SDS011;32071;49.036;9.344;2024-03-06T12:14:19;31.13;;;18.47;;
46363;SDS011;32071;49.036;9.344;2024-03-06T12:16:58;32.70;;;19.77;;
46363;SDS011;32071;49.036;9.344;2024-03-06T12:19:28;31.13;;;18.60;;
46363;SDS011;32071;49.036;9.344;2024-03-06T12:21:59;34.13;;;19.80;;
46363;SDS011;32071;49.036;9.344;2024-03-06T12:24:25;32.40;;;19.90;;
46363;SDS011;32071;49.036;9.344;2024-03-06T12:26:59;34.63;;;20.20;;
46363;SDS011;32071;49.036;9.344;2024-03-06T12:29:27;30.97;;;18.07;;
46363;SDS011;32071;49.036;9.344;2024-03-06T12:31:55;30.53;;;17.87;;
46363;SDS011;32071;49.036;9.344;2024-03-06T12:34:22;34.07;;;21.07;;
46363;SDS011;32071;49.036;9.344;2024-03-06T12:36:47;30.97;;;19.17;;
46363;SDS011;32071;49.036;9.344;2024-03-06T12:39:14;32.40;;;18.90;;
46363;SDS011;32071;49.036;9.344;2024-03-06T12:41:43;32.17;;;20.10;;
46363;SDS011;32071;49.036;9.344;2024-03-06T12:44:08;30.03;;;18.27;;
46363;SDS011;32071;49.036;9.344;2024-03-06T12:46:34;30.73;;;18.63;;
46363;SDS011;32071;49.036;9.344;2024-03-06T12:49:00;30.83;;;17.50;;
46363;SDS011;32071;49.036;9.344;2024-03-06T12:51:26;32.17;;;18.03;;
46363;SDS011;32071;49.036;9.344;2024-03-06T12:53:51;31.87;;;17.87;;
46363;SDS011;32071;49.036;9.344;2024-03-06T12:56:18;31.10;;;18.40;;
46363;SDS011;32071;49.036;9.344;2024-03-06T12:58:44;33.03;;;19.90;;
46363;SDS011;32071;49.036;9.344;2024-03-06T13:01:09;31.43;;;19.63;;
46363;SDS011;32071;49.036;9.344;2024-03-06T13:03:35;28.97;;;17.50;;
46363;SDS011;32071;49.036;9.344;2024-03-06T13:06:02;28.87;;;18.30;;
46363;SDS011;32071;49.036;9.344;2024-03-06T13:08:28;32.53;;;20.17;;
46363;SDS011;32071;49.036;9.344;2024-03-06T13:10:53;35.50;;;19.67;;
46363;SDS011;32071;49.036;9.344;2024-03-06T13:13:19;35.17;;;16.87;;
46363;SDS011;32071;49.036;9.344;2024-03-06T13:15:45;31.37;;;18.97;;
46363;SDS011;32071;49.036;9.344;2024-03-06T13:18:13;28.67;;;18.83;;
46363;SDS011;32071;49.036;9.344;2024-03-06T13:20:39;33.80;;;17.27;;
46363;SDS011;32071;49.036;9.344;2024-03-06T13:23:04;31.50;;;17.30;;
46363;SDS011;32071;49.036;9.344;2024-03-06T13:25:30;31.30;;;17.10;;
46363;SDS011;32071;49.036;9.344;2024-03-06T13:27:56;31.93;;;16.50;;
46363;SDS011;32071;49.036;9.344;2024-03-06T13:30:22;25.50;;;17.30;;
46363;SDS011;32071;49.036;9.344;2024-03-06T13:32:49;33.23;;;18.00;;
46363;SDS011;32071;49.036;9.344;2024-03-06T13:35:15;32.57;;;18.50;;
46363;SDS011;32071;49.036;9.344;2024-03-06T13:37:42;32.40;;;18.43;;
46363;SDS011;32071;49.036;9.344;2024-03-06T13:40:08;33.70;;;17.20;;
46363;SDS011;32071;49.036;9.344;2024-03-06T13:42:35;32.43;;;18.73;;
46363;SDS011;32071;49.036;9.344;2024-03-06T13:45:02;32.20;;;18.03;;
46363;SDS011;32071;49.036;9.344;2024-03-06T13:47:28;31.90;;;18.00;;
46363;SDS011;32071;49.036;9.344;2024-03-06T13:49:55;28.63;;;17.13;;
46363;SDS011;32071;49.036;9.344;2024-03-06T13:52:20;34.03;;;18.13;;
46363;SDS011;32071;49.036;9.344;2024-03-06T13:54:46;29.90;;;16.70;;
46363;SDS011;32071;49.036;9.344;2024-03-06T13:57:15;30.37;;;17.47;;
46363;SDS011;32071;49.036;9.344;2024-03-06T13:59:41;30.30;;;17.00;;
46363;SDS011;32071;49.036;9.344;2024-03-06T14:02:07;29.70;;;17.80;;
46363;SDS011;32071;49.036;9.344;2024-03-06T14:04:33;31.50;;;17.37;;
46363;SDS011;32071;49.036;9.344;2024-03-06T14:06:59;33.50;;;17.60;;
46363;SDS011;32071;49.036;9.344;2024-03-06T14:09:25;32.20;;;18.43;;
46363;SDS011;32071;49.036;9.344;2024-03-06T14:11:52;32.60;;;16.97;;
46363;SDS011;32071;49.036;9.344;2024-03-06T14:14:18;30.07;;;16.80;;
46363;SDS011;32071;49.036;9.344;2024-03-06T14:16:45;30.27;;;18.10;;
46363;SDS011;32071;49.036;9.344;2024-03-06T14:19:10;31.13;;;17.27;;
46363;SDS011;32071;49.036;9.344;2024-03-06T14:21:36;33.13;;;17.43;;
46363;SDS011;32071;49.036;9.344;2024-03-06T14:24:03;30.60;;;16.60;;
46363;SDS011;32071;49.036;9.344;2024-03-06T14:26:29;33.33;;;18.90;;
46363;SDS011;32071;49.036;9.344;2024-03-06T14:28:55;34.03;;;18.10;;
46363;SDS011;32071;49.036;9.344;2024-03-06T14:31:21;30.80;;;16.90;;
46363;SDS011;32071;49.036;9.344;2024-03-06T14:33:47;31.63;;;16.97;;
46363;SDS011;32071;49.036;9.344;2024-03-06T14:36:14;34.53;;;18.00;;